Time;durP1;ratioP1;P1;durP2;ratioP2;P2;SDS_P1;SDS_P2;PMS_P1;PMS_P2;Temp;Humidity;BMP_temperature;BMP_pressure;BME280_temperature;BME280_humidity;BME280_pressure;Samples;Min_cycle;Max_cycle;Signal;HPM_P1;HPM_P2
2021/07/31 00:00:14;;;;;;;;;;;;;;;6.64;100.00;99084.06;5103361;28;19946;-93
2021/07/31 00:02:39;;;;;;;;;;;;;;;6.67;100.00;99089.22;5109411;28;19928;-91
2021/07/31 00:05:05;;;;;;;;;;;;;;;6.45;100.00;99089.16;5112324;28;19975;-92
2021/07/31 00:07:31;;;;;;;;;;;;;;;6.32;100.00;99088.75;5111782;28;19942;-92
2021/07/31 00:09:56;;;;;;;;;;;;;;;6.31;100.00;99081.78;5110263;28;20283;-92
2021/07/31 00:12:21;;;;;;;;;;;;;;;6.32;100.00;99087.91;5110032;28;19938;-92
2021/07/31 00:14:47;;;;;;;;;;;;;;;6.15;100.00;99083.25;5111651;28;19951;-93
2021/07/31 00:17:12;;;;;;;;;;;;;;;6.08;100.00;99087.00;5111944;28;20023;-92
2021/07/31 00:19:38;;;;;;;;;;;;;;;6.15;100.00;99089.34;5109318;28;19974;-92
2021/07/31 00:22:03;;;;;;;;;;;;;;;6.02;100.00;99097.75;5107892;28;19981;-91
2021/07/31 00:24:29;;;;;;;;;;;;;;;5.90;100.00;99091.97;5106739;28;19931;-92
2021/07/31 01:08:05;;;;;;;;;;;;;;;5.59;100.00;99100.91;5057704;28;19944;-92
2021/07/31 01:10:31;;;;;;;;;;;;;;;5.70;100.00;99102.31;5045243;28;19920;-90
2021/07/31 01:12:58;;;;;;;;;;;;;;;5.80;100.00;99098.47;5055412;28;19924;-90
2021/07/31 01:15:23;;;;;;;;;;;;;;;6.02;100.00;99095.97;5059375;28;20303;-90
2021/07/31 01:17:48;;;;;;;;;;;;;;;6.20;100.00;99099.72;5060075;28;19943;-91
2021/07/31 01:20:14;;;;;;;;;;;;;;;6.21;100.00;99096.19;5066008;28;19913;-93
2021/07/31 01:22:39;;;;;;;;;;;;;;;6.18;100.00;99105.03;5044238;28;19924;-90
2021/07/31 01:25:07;;;;;;;;;;;;;;;6.12;100.00;99096.50;5050006;28;19921;-92
2021/07/31 01:27:34;;;;;;;;;;;;;;;6.11;100.00;99094.78;5045230;28;19928;-89
2021/07/31 01:30:00;;;;;;;;;;;;;;;6.08;100.00;99097.50;5041427;28;20319;-90
2021/07/31 01:32:26;;;;;;;;;;;;;;;5.92;100.00;99103.31;5041488;28;19920;-89
2021/07/31 01:34:55;;;;;;;;;;;;;;;6.09;100.00;99105.34;5041743;28;20295;-90
2021/07/31 01:37:23;;;;;;;;;;;;;;;6.13;100.00;99100.88;5041263;28;19956;-89
2021/07/31 01:39:48;;;;;;;;;;;;;;;6.02;100.00;99108.28;5040907;28;19921;-90
2021/07/31 01:42:17;;;;;;;;;;;;;;;5.97;100.00;99105.81;5040991;28;19932;-90
2021/07/31 01:44:42;;;;;;;;;;;;;;;5.98;100.00;99110.13;5040766;28;19921;-89
2021/07/31 01:47:07;;;;;;;;;;;;;;;6.18;100.00;99106.81;5040364;28;20270;-88
2021/07/31 01:49:33;;;;;;;;;;;;;;;5.99;100.00;99099.56;5041160;28;19975;-89
2021/07/31 01:51:58;;;;;;;;;;;;;;;6.20;100.00;99102.34;5041032;28;20358;-89
2021/07/31 01:54:23;;;;;;;;;;;;;;;6.34;100.00;99102.72;5040573;28;19921;-90
2021/07/31 01:56:49;;;;;;;;;;;;;;;6.21;100.00;99106.72;5040034;28;20342;-89
2021/07/31 01:59:15;;;;;;;;;;;;;;;6.16;100.00;99103.38;5040588;28;19921;-90
2021/07/31 02:01:40;;;;;;;;;;;;;;;6.28;100.00;99091.56;5040258;28;19921;-91
2021/07/31 02:04:06;;;;;;;;;;;;;;;6.16;100.00;99098.13;5040430;28;19927;-90
2021/07/31 02:06:31;;;;;;;;;;;;;;;6.06;100.00;99096.72;5040437;28;19921;-90
2021/07/31 02:08:57;;;;;;;;;;;;;;;6.16;100.00;99100.75;5058470;28;19948;-91
2021/07/31 02:11:22;;;;;;;;;;;;;;;5.98;100.00;99111.00;5064909;28;20254;-92
2021/07/31 02:13:47;;;;;;;;;;;;;;;6.13;100.00;99103.50;5053238;28;20011;-91
2021/07/31 02:16:20;;;;;;;;;;;;;;;5.89;100.00;99098.16;5054060;28;19952;-91
2021/07/31 02:18:45;;;;;;;;;;;;;;;6.10;100.00;99093.09;5051512;28;20177;-92
2021/07/31 02:21:11;;;;;;;;;;;;;;;5.88;100.00;99098.19;5069485;28;19924;-93
2021/07/31 02:23:36;;;;;;;;;;;;;;;5.77;100.00;99098.56;5052067;28;20069;-91
2021/07/31 02:26:01;;;;;;;;;;;;;;;5.84;100.00;99092.19;5053410;28;19963;-91
2021/07/31 02:28:27;;;;;;;;;;;;;;;5.85;100.00;99099.16;5051314;28;20195;-92
2021/07/31 02:30:52;;;;;;;;;;;;;;;5.82;100.00;99096.63;5052751;28;19920;-91
2021/07/31 07:48:34;;;;;;;;;;;;;;;5.22;100.00;99152.00;5063734;28;19925;-91
2021/07/31 07:51:00;;;;;;;;;;;;;;;5.28;100.00;99143.94;5064874;28;19929;-91
2021/07/31 07:53:25;;;;;;;;;;;;;;;5.12;100.00;99150.56;5061216;28;19932;-91
2021/07/31 07:55:50;;;;;;;;;;;;;;;5.23;100.00;99147.59;5060373;28;19925;-92
2021/07/31 07:58:16;;;;;;;;;;;;;;;5.17;100.00;99147.78;5061501;28;19932;-91
2021/07/31 08:00:44;;;;;;;;;;;;;;;5.29;100.00;99144.78;5062744;28;19959;-89
2021/07/31 08:03:09;;;;;;;;;;;;;;;5.25;100.00;99141.41;5060259;28;19978;-89
2021/07/31 08:05:38;;;;;;;;;;;;;;;5.17;100.00;99153.03;5060272;28;19929;-89
2021/07/31 08:08:04;;;;;;;;;;;;;;;5.22;100.00;99149.38;5059906;28;20298;-89
2021/07/31 08:10:30;;;;;;;;;;;;;;;5.27;100.00;99149.25;5060118;28;20015;-90
2021/07/31 08:12:55;;;;;;;;;;;;;;;5.28;100.00;99159.72;5060137;28;19971;-88
2021/07/31 08:15:20;;;;;;;;;;;;;;;5.24;100.00;99152.81;5059568;28;19920;-91
2021/07/31 08:17:46;;;;;;;;;;;;;;;5.19;100.00;99154.72;5059676;28;19920;-89
2021/07/31 08:20:11;;;;;;;;;;;;;;;5.18;100.00;99168.75;5060059;28;19931;-91
2021/07/31 08:22:40;;;;;;;;;;;;;;;5.22;100.00;99156.41;5059865;28;19920;-90
2021/07/31 08:25:06;;;;;;;;;;;;;;;5.25;100.00;99156.31;5059517;28;19928;-90
2021/07/31 08:27:32;;;;;;;;;;;;;;;5.35;100.00;99154.25;5060077;28;19946;-90
2021/07/31 08:29:57;;;;;;;;;;;;;;;5.17;100.00;99159.19;5059734;28;20149;-89
2021/07/31 08:32:22;;;;;;;;;;;;;;;5.30;100.00;99164.03;5059797;28;20447;-89
2021/07/31 08:34:50;;;;;;;;;;;;;;;5.21;100.00;99166.03;5059391;28;19920;-91
2021/07/31 08:37:15;;;;;;;;;;;;;;;5.26;100.00;99172.03;5059100;28;20300;-89
2021/07/31 08:39:41;;;;;;;;;;;;;;;5.21;100.00;99165.19;5059677;28;19920;-90
2021/07/31 08:42:06;;;;;;;;;;;;;;;5.21;100.00;99158.16;5070034;28;20290;-90
2021/07/31 08:44:35;;;;;;;;;;;;;;;5.21;100.00;99160.78;5072631;28;19932;-90
2021/07/31 08:47:03;;;;;;;;;;;;;;;5.18;100.00;99158.25;5058699;28;20452;-90
2021/07/31 08:49:28;;;;;;;;;;;;;;;5.11;100.00;99154.13;5064105;28;20291;-90
2021/07/31 08:51:54;;;;;;;;;;;;;;;5.20;100.00;99158.22;5058658;28;19920;-89
2021/07/31 08:54:20;;;;;;;;;;;;;;;5.20;100.00;99158.22;5059181;28;20307;-89
2021/07/31 08:56:45;;;;;;;;;;;;;;;5.18;100.00;99163.50;5058392;28;19925;-89
2021/07/31 08:59:10;;;;;;;;;;;;;;;5.24;100.00;99155.44;5058726;28;19932;-89
2021/07/31 09:01:36;;;;;;;;;;;;;;;5.22;100.00;99161.66;5061740;28;20250;-89
2021/07/31 09:04:12;;;;;;;;;;;;;;;5.29;100.00;99150.03;5057640;28;19986;-91
2021/07/31 09:06:37;;;;;;;;;;;;;;;5.28;100.00;99157.06;5057987;28;20219;-90
2021/07/31 09:09:02;;;;;;;;;;;;;;;5.27;100.00;99160.59;5057691;28;19921;-90
2021/07/31 09:11:29;;;;;;;;;;;;;;;5.28;100.00;99157.06;5058512;28;19928;-90
2021/07/31 09:14:13;;;;;;;;;;;;;;;5.34;100.00;99163.91;5058657;28;19921;-90
2021/07/31 09:16:39;;;;;;;;;;;;;;;5.41;100.00;99156.69;5054778;28;19925;-91
2021/07/31 09:19:05;;;;;;;;;;;;;;;5.39;100.00;99158.50;5039246;28;19921;-90
2021/07/31 09:21:31;;;;;;;;;;;;;;;5.40;100.00;99165.47;5039050;28;20224;-90
2021/07/31 09:23:56;;;;;;;;;;;;;;;5.43;100.00;99165.38;5054883;28;19932;-90
2021/07/31 09:26:22;;;;;;;;;;;;;;;5.40;100.00;99163.69;5055002;28;20191;-92
2021/07/31 09:29:17;;;;;;;;;;;;;;;5.33;100.00;99162.19;5054639;28;19921;-91
2021/07/31 09:31:45;;;;;;;;;;;;;;;5.36;100.00;99171.72;5026111;28;19917;-89
2021/07/31 09:34:11;;;;;;;;;;;;;;;5.44;100.00;99161.81;5038365;28;19921;-90
2021/07/31 09:36:41;;;;;;;;;;;;;;;5.41;100.00;99151.44;5039303;28;19921;-89
2021/07/31 09:39:07;;;;;;;;;;;;;;;5.38;100.00;99159.44;5054871;28;19924;-89
2021/07/31 09:41:36;;;;;;;;;;;;;;;5.41;100.00;99156.69;5054524;28;19921;-89
2021/07/31 09:44:03;;;;;;;;;;;;;;;5.42;100.00;99154.00;5057727;28;19932;-89
2021/07/31 09:46:32;;;;;;;;;;;;;;;5.45;100.00;99160.94;5057557;28;19921;-89
2021/07/31 09:48:58;;;;;;;;;;;;;;;5.49;100.00;99156.44;5054981;28;19983;-89
2021/07/31 09:51:34;;;;;;;;;;;;;;;5.42;100.00;99155.78;5053854;28;19924;-90
2021/07/31 09:54:01;;;;;;;;;;;;;;;5.40;100.00;99161.06;5045870;28;20353;-89
2021/07/31 09:56:27;;;;;;;;;;;;;;;5.42;100.00;99155.78;5058095;28;20291;-91
2021/07/31 09:58:54;;;;;;;;;;;;;;;5.53;100.00;99155.44;5055371;28;20227;-89
2021/07/31 10:01:22;;;;;;;;;;;;;;;5.52;100.00;99151.97;5059008;28;20207;-90
2021/07/31 10:03:49;;;;;;;;;;;;;;;5.37;100.00;99155.91;5057465;28;19920;-91
2021/07/31 10:06:14;;;;;;;;;;;;;;;5.44;100.00;99153.94;5057497;28;19920;-89
2021/07/31 10:08:40;;;;;;;;;;;;;;;5.38;100.00;99149.75;5057425;28;19921;-89
2021/07/31 10:11:06;;;;;;;;;;;;;;;5.48;100.00;99152.94;5057165;28;19927;-89
2021/07/31 10:13:31;;;;;;;;;;;;;;;5.41;100.00;99146.19;5067452;28;20027;-90
2021/07/31 10:15:57;;;;;;;;;;;;;;;5.51;100.00;99152.00;5075064;28;19960;-92
2021/07/31 10:18:23;;;;;;;;;;;;;;;5.49;100.00;99152.06;5066374;28;19955;-89
2021/07/31 10:20:48;;;;;;;;;;;;;;;5.51;100.00;99137.09;5073249;28;19947;-90
2021/07/31 10:23:34;;;;;;;;;;;;;;;5.59;100.00;99144.72;5072842;28;19925;-89
2021/07/31 10:26:10;;;;;;;;;;;;;;;5.57;100.00;99133.41;5073538;28;20325;-90
2021/07/31 10:28:36;;;;;;;;;;;;;;;5.54;100.00;99126.47;5069240;28;20325;-90
2021/07/31 10:31:20;;;;;;;;;;;;;;;5.55;100.00;99133.47;5073651;28;19929;-90
2021/07/31 10:33:46;;;;;;;;;;;;;;;5.63;100.00;99130.56;5070284;28;19970;-89
2021/07/31 10:36:31;;;;;;;;;;;;;;;5.57;100.00;99131.63;5070685;28;19925;-90
2021/07/31 10:38:57;;;;;;;;;;;;;;;5.59;100.00;99140.31;5074416;28;19920;-89
2021/07/31 10:41:41;;;;;;;;;;;;;;;5.59;100.00;99131.59;5072905;28;19993;-90
2021/07/31 10:44:11;;;;;;;;;;;;;;;5.64;100.00;99138.41;5065002;28;20020;-91
2021/07/31 10:46:39;;;;;;;;;;;;;;;5.61;100.00;99137.66;5076688;28;19925;-89
2021/07/31 10:49:23;;;;;;;;;;;;;;;5.62;100.00;99144.63;5066000;28;19963;-90
2021/07/31 10:51:48;;;;;;;;;;;;;;;5.61;100.00;99138.50;5073318;28;19921;-89
2021/07/31 10:54:14;;;;;;;;;;;;;;;5.64;100.00;99133.13;5072383;28;20185;-89
2021/07/31 10:56:53;;;;;;;;;;;;;;;5.61;100.00;99137.66;5068571;28;19929;-89
2021/07/31 10:59:19;;;;;;;;;;;;;;;5.66;100.00;99140.13;5066973;28;19920;-90
2021/07/31 11:01:45;;;;;;;;;;;;;;;5.57;100.00;99131.63;5070196;28;19921;-91
2021/07/31 11:04:30;;;;;;;;;;;;;;;5.63;100.00;99133.19;5070855;28;19921;-90
2021/07/31 11:07:09;;;;;;;;;;;;;;;5.70;100.00;99139.97;5061131;28;19921;-92
2021/07/31 11:09:35;;;;;;;;;;;;;;;5.77;100.00;99133.59;5061225;28;20207;-90
2021/07/31 11:12:20;;;;;;;;;;;;;;;5.60;100.00;99133.28;5064186;28;19921;-89
2021/07/31 11:15:08;;;;;;;;;;;;;;;5.61;100.00;99140.28;5063233;28;19975;-90
2021/07/31 11:17:33;;;;;;;;;;;;;;;5.67;100.00;99134.81;5069413;28;20010;-90
2021/07/31 11:20:04;;;;;;;;;;;;;;;5.64;100.00;99127.88;5049318;28;19968;-89
2021/07/31 11:22:30;;;;;;;;;;;;;;;5.77;100.00;99135.38;5066222;28;19932;-89
2021/07/31 11:24:56;;;;;;;;;;;;;;;5.82;100.00;99130.81;5058681;28;19921;-89
2021/07/31 11:27:21;;;;;;;;;;;;;;;5.63;100.00;99125.31;5060999;28;19971;-89
2021/07/31 11:29:55;;;;;;;;;;;;;;;5.61;100.00;99141.13;5061459;28;19929;-89
2021/07/31 11:32:27;;;;;;;;;;;;;;;5.77;100.00;99145.88;5057559;28;19931;-89
2021/07/31 11:34:52;;;;;;;;;;;;;;;5.72;100.00;99139.94;5071140;28;20318;-88
2021/07/31 11:37:17;;;;;;;;;;;;;;;5.74;100.00;99140.72;5066880;28;19924;-91
2021/07/31 11:39:45;;;;;;;;;;;;;;;5.73;100.00;99133.78;5056828;28;19920;-92
2021/07/31 11:42:17;;;;;;;;;;;;;;;5.73;100.00;99139.03;5058349;28;20299;-91
2021/07/31 11:44:43;;;;;;;;;;;;;;;5.77;100.00;99132.75;5027673;28;19921;-91
2021/07/31 11:47:08;;;;;;;;;;;;;;;5.85;99.87;99130.69;5044702;28;19920;-90
2021/07/31 11:49:35;;;;;;;;;;;;;;;5.80;100.00;99137.91;5049116;28;19951;-90
2021/07/31 11:52:04;;;;;;;;;;;;;;;5.77;100.00;99140.63;5050536;28;20015;-91
2021/07/31 11:54:30;;;;;;;;;;;;;;;5.83;100.00;99135.16;5066555;28;19928;-89
2021/07/31 11:56:56;;;;;;;;;;;;;;;5.86;100.00;99139.47;5046398;28;19933;-88
2021/07/31 11:59:23;;;;;;;;;;;;;;;5.91;100.00;99127.03;5047815;28;19932;-89
2021/07/31 12:01:52;;;;;;;;;;;;;;;5.92;100.00;99128.72;5077817;28;19925;-89
2021/07/31 12:04:37;;;;;;;;;;;;;;;5.81;100.00;99129.09;5048821;28;19975;-88
2021/07/31 12:07:09;;;;;;;;;;;;;;;5.69;100.00;99130.34;5062666;28;20280;-91
2021/07/31 12:09:34;;;;;;;;;;;;;;;5.79;100.00;99133.53;5049093;28;19920;-88
2021/07/31 12:12:00;;;;;;;;;;;;;;;5.77;100.00;99132.75;5070179;28;20019;-90
2021/07/31 12:14:26;;;;;;;;;;;;;;;5.67;100.00;99133.97;5053093;28;19971;-90
2021/07/31 12:16:52;;;;;;;;;;;;;;;5.80;100.00;99133.47;5046177;28;19924;-89
2021/07/31 12:19:18;;;;;;;;;;;;;;;5.92;100.00;99121.72;5060816;28;20288;-90
2021/07/31 12:21:44;;;;;;;;;;;;;;;5.81;100.00;99129.09;5060350;28;21833;-91
2021/07/31 12:24:17;;;;;;;;;;;;;;;5.89;100.00;99129.69;5069411;28;19985;-91
2021/07/31 12:26:51;;;;;;;;;;;;;;;5.81;100.00;99123.84;5072079;28;20357;-91
2021/07/31 12:29:32;;;;;;;;;;;;;;;5.77;100.00;99130.09;5067754;28;19925;-91
2021/07/31 12:32:16;;;;;;;;;;;;;;;5.80;100.00;99125.59;5066012;28;19920;-91
2021/07/31 12:34:45;;;;;;;;;;;;;;;5.72;100.00;99108.38;5055739;28;19921;-88
2021/07/31 12:37:11;;;;;;;;;;;;;;;5.73;100.00;99128.50;5063910;28;20294;-89
2021/07/31 12:39:36;;;;;;;;;;;;;;;5.70;100.00;99124.19;5049850;28;19964;-90
2021/07/31 12:42:03;;;;;;;;;;;;;;;5.71;100.00;99130.31;5043859;28;20043;-91
2021/07/31 12:44:30;;;;;;;;;;;;;;;5.73;100.00;99136.41;5078793;28;19932;-90
2021/07/31 12:46:56;;;;;;;;;;;;;;;5.71;100.00;99125.06;5062910;28;20284;-90
2021/07/31 12:49:22;;;;;;;;;;;;;;;5.73;100.00;99123.25;5072601;28;19921;-90
2021/07/31 12:51:47;;;;;;;;;;;;;;;5.72;100.00;99113.63;5061984;28;19920;-91
2021/07/31 12:54:13;;;;;;;;;;;;;;;5.78;99.97;99118.69;5072176;28;19921;-89
2021/07/31 12:56:38;;;;;;;;;;;;;;;5.84;99.32;99113.22;5059313;28;20426;-88
2021/07/31 12:59:04;;;;;;;;;;;;;;;5.67;100.00;99116.41;5063180;28;19974;-89
2021/07/31 13:01:30;;;;;;;;;;;;;;;5.71;100.00;99118.03;5033400;28;20288;-89
2021/07/31 13:03:55;;;;;;;;;;;;;;;5.75;100.00;99114.38;5046138;28;19927;-90
2021/07/31 13:06:20;;;;;;;;;;;;;;;5.74;100.00;99106.56;5058130;28;19920;-90
2021/07/31 13:08:46;;;;;;;;;;;;;;;5.65;100.00;99105.09;5060198;28;20017;-89
2021/07/31 13:11:11;;;;;;;;;;;;;;;5.73;99.81;99110.97;5052536;28;19997;-90
2021/07/31 13:13:37;;;;;;;;;;;;;;;5.70;99.34;99110.22;5044079;28;20091;-89
2021/07/31 13:16:02;;;;;;;;;;;;;;;5.73;100.00;99107.47;5054467;28;20357;-89
2021/07/31 13:18:28;;;;;;;;;;;;;;;5.65;100.00;99102.47;5041010;28;20315;-88
2021/07/31 13:20:54;;;;;;;;;;;;;;;5.71;100.00;99101.41;5048858;28;19920;-89
2021/07/31 13:23:19;;;;;;;;;;;;;;;5.58;100.00;99093.91;5046698;28;19924;-91
2021/07/31 13:25:45;;;;;;;;;;;;;;;5.57;100.00;99097.47;5045804;28;19932;-90
2021/07/31 13:28:10;;;;;;;;;;;;;;;5.65;100.00;99099.84;5056396;28;19921;-88
2021/07/31 13:30:36;;;;;;;;;;;;;;;5.74;100.00;99098.66;5054624;28;19921;-90
2021/07/31 13:33:02;;;;;;;;;;;;;;;5.72;100.00;99095.25;5039659;28;19947;-87
2021/07/31 13:35:27;;;;;;;;;;;;;;;5.81;100.00;99092.31;5057478;28;20195;-89
2021/07/31 13:37:53;;;;;;;;;;;;;;;5.72;100.00;99100.50;5040601;28;19943;-88
2021/07/31 13:40:20;;;;;;;;;;;;;;;5.77;100.00;99101.19;5042201;28;20000;-89
2021/07/31 13:42:46;;;;;;;;;;;;;;;5.72;100.00;99097.88;5040893;28;19921;-90
2021/07/31 13:45:13;;;;;;;;;;;;;;;5.88;99.11;99104.31;5040703;28;20271;-89
2021/07/31 13:47:42;;;;;;;;;;;;;;;5.79;99.39;99094.09;5054543;28;19929;-89
2021/07/31 13:50:08;;;;;;;;;;;;;;;5.67;100.00;99084.88;5048984;28;20196;-89
2021/07/31 13:52:33;;;;;;;;;;;;;;;5.64;100.00;99088.44;5059797;28;20265;-90
2021/07/31 13:54:59;;;;;;;;;;;;;;;5.62;100.00;99082.41;5063614;28;20062;-90
2021/07/31 13:57:26;;;;;;;;;;;;;;;5.67;100.00;99087.50;5061326;28;20538;-89
2021/07/31 13:59:52;;;;;;;;;;;;;;;5.68;100.00;99090.97;5031996;28;19921;-89
2021/07/31 14:02:17;;;;;;;;;;;;;;;5.71;99.96;99090.88;5070160;28;19956;-89
2021/07/31 14:04:43;;;;;;;;;;;;;;;5.66;100.00;99091.03;5052856;28;19927;-88
2021/07/31 14:07:08;;;;;;;;;;;;;;;5.67;100.00;99089.28;5042157;28;20015;-90
2021/07/31 14:09:36;;;;;;;;;;;;;;;5.78;100.00;99089.78;5057851;28;19931;-90
2021/07/31 14:12:02;;;;;;;;;;;;;;;5.70;100.00;99089.19;5047906;28;20031;-90
2021/07/31 14:14:28;;;;;;;;;;;;;;;5.77;100.00;99080.16;5057407;28;20334;-90
2021/07/31 14:16:56;;;;;;;;;;;;;;;5.80;99.58;99077.44;5069514;28;19961;-88
2021/07/31 14:19:21;;;;;;;;;;;;;;;5.78;100.00;99079.25;5057257;28;19944;-89
2021/07/31 14:21:46;;;;;;;;;;;;;;;5.67;100.00;99089.28;5072723;28;20292;-91
2021/07/31 14:24:12;;;;;;;;;;;;;;;5.79;99.68;99078.31;5064142;28;19998;-88
2021/07/31 14:26:39;;;;;;;;;;;;;;;5.88;100.00;99078.00;5074344;28;20015;-88
2021/07/31 14:29:05;;;;;;;;;;;;;;;6.08;99.97;99072.09;5061287;28;20015;-89
2021/07/31 14:31:30;;;;;;;;;;;;;;;5.92;100.00;99071.75;5063854;28;19948;-89
2021/07/31 14:33:55;;;;;;;;;;;;;;;5.78;100.00;99063.47;5057202;28;20307;-89
2021/07/31 14:36:23;;;;;;;;;;;;;;;5.83;100.00;99075.53;5057424;28;19995;-89
2021/07/31 14:38:49;;;;;;;;;;;;;;;5.85;100.00;99072.00;5056837;28;20225;-90
2021/07/31 14:41:14;;;;;;;;;;;;;;;5.91;100.00;99069.16;5057237;28;19920;-89
2021/07/31 14:43:39;;;;;;;;;;;;;;;5.85;99.83;99066.75;5069370;28;19932;-89
2021/07/31 14:46:12;;;;;;;;;;;;;;;5.86;99.61;99066.69;5062787;28;19987;-89
2021/07/31 14:48:37;;;;;;;;;;;;;;;5.97;100.00;99066.34;5057608;28;19951;-89
2021/07/31 14:51:03;;;;;;;;;;;;;;;5.97;100.00;99066.34;5059813;28;19924;-89
2021/07/31 14:53:28;;;;;;;;;;;;;;;5.95;99.26;99063.75;5057425;28;19921;-89
2021/07/31 14:55:54;;;;;;;;;;;;;;;6.04;99.64;99059.09;5061978;28;19925;-89
2021/07/31 14:58:19;;;;;;;;;;;;;;;6.00;100.00;99061.84;5060271;28;19924;-89
2021/07/31 15:00:44;;;;;;;;;;;;;;;6.03;99.59;99071.41;5065478;28;19920;-92
2021/07/31 15:03:10;;;;;;;;;;;;;;;5.89;100.00;99071.84;5060632;28;19979;-90
2021/07/31 15:05:41;;;;;;;;;;;;;;;5.87;99.65;99071.06;5075182;28;19917;-89
2021/07/31 15:08:06;;;;;;;;;;;;;;;5.92;99.44;99068.25;5043088;28;19979;-89
2021/07/31 15:10:44;;;;;;;;;;;;;;;6.02;99.58;99068.84;5045031;28;20027;-89
2021/07/31 15:13:09;;;;;;;;;;;;;;;5.94;99.17;99074.31;5056153;28;20034;-91
2021/07/31 15:15:37;;;;;;;;;;;;;;;6.00;98.59;99074.16;5058929;28;19955;-89
2021/07/31 15:18:02;;;;;;;;;;;;;;;6.03;99.33;99065.28;5078777;28;19920;-89
2021/07/31 15:20:27;;;;;;;;;;;;;;;5.88;99.25;99069.28;5082386;28;19921;-91
2021/07/31 15:22:53;;;;;;;;;;;;;;;5.94;99.48;99064.66;5072796;28;19966;-91
2021/07/31 15:25:18;;;;;;;;;;;;;;;5.95;99.05;99057.63;5073413;28;19924;-89
2021/07/31 15:27:46;;;;;;;;;;;;;;;5.99;98.37;99065.38;5077600;28;19964;-89
2021/07/31 15:30:11;;;;;;;;;;;;;;;5.83;99.62;99067.66;5067612;28;20010;-91
2021/07/31 15:32:37;;;;;;;;;;;;;;;5.95;99.30;99062.88;5071766;28;19952;-91
2021/07/31 15:35:03;;;;;;;;;;;;;;;5.94;100.00;99066.44;5054482;28;19974;-89
2021/07/31 15:37:31;;;;;;;;;;;;;;;6.00;98.88;99068.88;5055019;28;19933;-90
2021/07/31 15:39:57;;;;;;;;;;;;;;;5.95;98.50;99066.38;5070313;28;19920;-90
2021/07/31 15:42:22;;;;;;;;;;;;;;;5.98;98.98;99058.41;5043362;28;19921;-91
2021/07/31 15:44:50;;;;;;;;;;;;;;;5.93;99.40;99055.03;5050789;28;19928;-91
2021/07/31 15:47:16;;;;;;;;;;;;;;;5.89;99.81;99063.09;5071667;28;20196;-89
2021/07/31 15:49:41;;;;;;;;;;;;;;;5.89;100.00;99066.59;5068474;28;19920;-90
2021/07/31 15:52:06;;;;;;;;;;;;;;;5.94;99.86;99062.03;5055638;28;20299;-90
2021/07/31 15:54:32;;;;;;;;;;;;;;;5.91;99.76;99054.25;5050970;28;19931;-90
2021/07/31 15:56:57;;;;;;;;;;;;;;;6.03;100.00;99049.50;5045987;28;19936;-89
2021/07/31 15:59:25;;;;;;;;;;;;;;;6.03;99.12;99054.75;5044860;28;19931;-89
2021/07/31 16:01:55;;;;;;;;;;;;;;;6.00;99.41;99046.06;5073562;28;19932;-90
2021/07/31 16:04:22;;;;;;;;;;;;;;;5.94;99.21;99034.88;5061917;28;19924;-89
2021/07/31 16:06:57;;;;;;;;;;;;;;;6.11;99.24;99036.91;5046697;28;19990;-91
2021/07/31 16:11:51;;;;;;;;;;;;;;;5.89;99.56;99032.41;5061555;28;19994;-90
2021/07/31 16:14:17;;;;;;;;;;;;;;;6.04;99.25;99030.19;5049996;28;20204;-90
2021/07/31 16:16:42;;;;;;;;;;;;;;;6.06;98.53;99030.97;5049625;28;19936;-89
2021/07/31 16:19:08;;;;;;;;;;;;;;;6.04;97.82;99033.66;5047490;28;20027;-89
2021/07/31 16:21:33;;;;;;;;;;;;;;;5.88;98.80;99038.56;5057500;28;19921;-89
2021/07/31 16:24:01;;;;;;;;;;;;;;;5.90;98.85;99034.09;5061450;28;19986;-89
2021/07/31 16:26:29;;;;;;;;;;;;;;;5.95;99.07;99040.09;5060000;28;19917;-89
2021/07/31 16:28:54;;;;;;;;;;;;;;;6.05;98.48;99037.13;5065736;28;19921;-90
2021/07/31 16:31:20;;;;;;;;;;;;;;;5.90;98.44;99028.00;5055832;28;20308;-89
2021/07/31 16:33:45;;;;;;;;;;;;;;;5.90;99.82;99028.84;5059303;28;19921;-89
2021/07/31 16:36:11;;;;;;;;;;;;;;;5.88;99.11;99027.22;5062477;28;19996;-91
2021/07/31 16:38:42;;;;;;;;;;;;;;;5.93;98.81;99031.38;5070379;28;19921;-90
2021/07/31 16:41:18;;;;;;;;;;;;;;;;;;;;;
2021/07/31 16:43:46;;;;;;;;;;;;;;;6.03;98.86;99024.06;5068303;28;19931;-90
2021/07/31 16:46:12;;;;;;;;;;;;;;;5.88;99.45;99033.31;5067140;28;19920;-90
2021/07/31 16:48:41;;;;;;;;;;;;;;;6.03;99.07;99026.69;5067807;28;19970;-90
2021/07/31 16:51:06;;;;;;;;;;;;;;;6.11;98.27;99026.38;5043823;28;19932;-90
2021/07/31 16:53:48;;;;;;;;;;;;;;;6.10;97.78;99029.97;5066680;28;19928;-90
2021/07/31 16:56:15;;;;;;;;;;;;;;;6.11;98.88;99026.38;5046476;28;19935;-89
2021/07/31 16:58:46;;;;;;;;;;;;;;;6.06;98.60;99028.34;5049058;28;19936;-91
2021/07/31 17:01:14;;;;;;;;;;;;;;;5.94;98.74;99027.84;5067943;28;20007;-91
2021/07/31 17:03:49;;;;;;;;;;;;;;;5.96;98.72;99040.94;5065595;28;19935;-92
2021/07/31 17:06:34;;;;;;;;;;;;;;;;;;;;;
2021/07/31 17:09:03;;;;;;;;;;;;;;;5.91;99.17;99027.09;5058232;28;20295;-90
2021/07/31 17:11:28;;;;;;;;;;;;;;;5.88;99.38;99029.84;5046041;28;19921;-93
2021/07/31 17:14:30;;;;;;;;;;;;;;;;;;;;;
2021/07/31 17:16:52;;;;;;;;;;;;;;;5.98;98.54;99020.72;5061721;28;19978;-91
2021/07/31 17:19:29;;;;;;;;;;;;;;;5.92;98.98;99027.03;5055001;28;19920;-89
2021/07/31 17:21:55;;;;;;;;;;;;;;;6.66;97.66;99023.47;5069132;28;20026;-87
2021/07/31 17:24:22;;;;;;;;;;;;;;;6.54;98.50;99028.28;5057739;28;19952;-88
2021/07/31 17:26:50;;;;;;;;;;;;;;;6.33;97.89;99031.72;5067007;28;19962;-88
2021/07/31 17:29:22;;;;;;;;;;;;;;;6.16;98.57;99027.09;5063009;28;19931;-87
2021/07/31 17:31:52;;;;;;;;;;;;;;;6.16;98.03;99029.72;5064241;28;19932;-88
2021/07/31 17:34:24;;;;;;;;;;;;;;;6.18;98.72;99035.78;5061324;28;19973;-88
2021/07/31 17:36:52;;;;;;;;;;;;;;;6.01;99.56;99028.50;5056551;28;19932;-89
2021/07/31 17:39:17;;;;;;;;;;;;;;;6.06;98.55;99037.06;5063794;28;19921;-89
2021/07/31 17:42:06;;;;;;;;;;;;;;;6.23;98.52;99028.56;5063802;28;19920;-88
2021/07/31 17:44:31;;;;;;;;;;;;;;;6.28;97.60;99031.88;5058221;28;19932;-89
2021/07/31 17:46:56;;;;;;;;;;;;;;;6.16;98.05;99030.59;5046396;28;19920;-89
2021/07/31 17:49:21;;;;;;;;;;;;;;;6.06;97.86;99029.19;5045338;28;19959;-92
2021/07/31 17:51:47;;;;;;;;;;;;;;;5.97;99.99;99027.75;5043118;28;20061;-89
2021/07/31 17:54:12;;;;;;;;;;;;;;;6.25;98.28;99026.75;5043751;28;20021;-88
2021/07/31 17:56:41;;;;;;;;;;;;;;;6.16;98.26;99021.84;5055037;28;19935;-89
2021/07/31 17:59:07;;;;;;;;;;;;;;;6.17;98.01;99021.78;5064115;28;20003;-88
2021/07/31 18:01:32;;;;;;;;;;;;;;;6.25;98.30;99024.09;5062585;28;20504;-89
2021/07/31 18:04:00;;;;;;;;;;;;;;;6.29;97.58;99024.88;5062896;28;19920;-89
2021/07/31 18:06:31;;;;;;;;;;;;;;;6.09;98.36;99023.81;5065563;28;19924;-89
2021/07/31 18:09:00;;;;;;;;;;;;;;;6.12;98.70;99022.84;5063057;28;19932;-89
2021/07/31 18:11:25;;;;;;;;;;;;;;;6.20;98.29;99028.69;5065276;28;19951;-89
2021/07/31 18:13:51;;;;;;;;;;;;;;;6.21;99.27;99032.16;5057907;28;19932;-90
2021/07/31 18:16:17;;;;;;;;;;;;;;;6.04;98.87;99027.53;5057440;28;20219;-89
2021/07/31 18:18:45;;;;;;;;;;;;;;;6.06;99.61;99029.19;5065962;28;19920;-88
2021/07/31 18:21:11;;;;;;;;;;;;;;;6.11;99.75;99026.38;5063182;28;19920;-90
2021/07/31 18:23:40;;;;;;;;;;;;;;;6.20;98.55;99030.47;5061589;28;19929;-89
2021/07/31 18:26:06;;;;;;;;;;;;;;;6.13;98.57;99024.59;5061171;28;19920;-88
2021/07/31 18:28:36;;;;;;;;;;;;;;;6.08;98.80;99031.75;5061987;28;19921;-89
2021/07/31 18:31:02;;;;;;;;;;;;;;;6.16;99.86;99035.00;5060770;28;20326;-88
2021/07/31 18:33:39;;;;;;;;;;;;;;;6.13;99.37;99035.94;5062456;28;19952;-89
2021/07/31 18:36:09;;;;;;;;;;;;;;;6.12;99.11;99036.00;5047161;28;19936;-89
2021/07/31 18:38:38;;;;;;;;;;;;;;;6.20;99.31;99038.38;5069419;28;20732;-89
2021/07/31 18:41:05;;;;;;;;;;;;;;;6.20;99.38;99038.38;5066247;28;20296;-89
2021/07/31 18:43:33;;;;;;;;;;;;;;;6.06;99.09;99033.59;5060036;28;20284;-89
2021/07/31 18:45:58;;;;;;;;;;;;;;;6.03;100.00;99033.72;5063056;28;19929;-88
2021/07/31 18:51:08;;;;;;;;;;;;;;;;;;;;;
2021/07/31 18:53:45;;;;;;;;;;;;;;;6.05;99.24;99043.28;5024952;28;19927;-90
2021/07/31 18:56:34;;;;;;;;;;;;;;;6.15;98.94;99043.78;5025164;28;19944;-90
2021/07/31 18:59:02;;;;;;;;;;;;;;;6.10;99.13;99045.75;5038662;28;20300;-89